createdAt,value
2016-10-02T00:00:05.977Z,0
2016-10-02T00:00:46.510Z,0
2016-10-02T00:01:27.016Z,0
2016-10-02T00:02:07.561Z,0
2016-10-02T00:02:48.099Z,0
2016-10-02T00:03:28.605Z,0
2016-10-02T00:04:09.124Z,0
2016-10-02T00:04:49.619Z,0
2016-10-02T00:05:30.129Z,0
2016-10-02T00:06:10.628Z,0
2016-10-02T00:06:51.133Z,0
2016-10-02T00:07:31.626Z,0
2016-10-02T00:08:12.122Z,0
2016-10-02T00:08:52.686Z,0
2016-10-02T00:09:33.228Z,0
2016-10-02T00:10:13.718Z,0
2016-10-02T00:10:54.171Z,0
2016-10-02T00:11:34.709Z,0
2016-10-02T00:12:15.240Z,0
2016-10-02T00:12:55.706Z,0
2016-10-02T00:13:36.217Z,0
2016-10-02T00:14:16.721Z,0
2016-10-02T00:14:57.228Z,0
2016-10-02T00:15:37.715Z,0
2016-10-02T00:16:18.227Z,0
2016-10-02T00:16:58.742Z,0
2016-10-02T00:17:39.252Z,0
2016-10-02T00:18:19.764Z,0
2016-10-02T00:19:00.267Z,0
2016-10-02T00:19:40.765Z,0
2016-10-02T00:20:21.243Z,0
2016-10-02T00:21:01.765Z,0
2016-10-02T00:21:42.263Z,0
2016-10-02T00:22:22.761Z,0
2016-10-02T00:23:03.269Z,0
2016-10-02T00:23:43.793Z,0
2016-10-02T00:24:24.303Z,0
2016-10-02T00:25:04.850Z,0
2016-10-02T00:25:45.341Z,0
2016-10-02T00:26:25.823Z,0
2016-10-02T00:27:06.351Z,0
2016-10-02T00:27:46.831Z,0
2016-10-02T00:28:27.352Z,0
2016-10-02T00:29:07.817Z,0
2016-10-02T00:29:48.340Z,0
2016-10-02T00:30:28.828Z,0
2016-10-02T00:31:09.338Z,0
2016-10-02T00:31:49.889Z,0
2016-10-02T00:32:30.411Z,0
2016-10-02T00:33:10.945Z,0
2016-10-02T00:33:51.502Z,0
2016-10-02T00:34:32.037Z,0
2016-10-02T00:35:12.544Z,0
2016-10-02T00:35:53.078Z,0
2016-10-02T00:36:33.588Z,0
2016-10-02T00:37:14.095Z,0
2016-10-02T00:37:54.574Z,0
2016-10-02T00:38:35.074Z,0
2016-10-02T00:39:15.569Z,0
2016-10-02T00:39:56.061Z,0
2016-10-02T00:40:36.578Z,0
2016-10-02T00:41:17.079Z,0
2016-10-02T00:41:57.584Z,0
2016-10-02T00:42:38.157Z,0
2016-10-02T00:43:18.686Z,0
2016-10-02T00:43:59.182Z,0
2016-10-02T00:44:39.683Z,0
2016-10-02T00:45:20.209Z,0
2016-10-02T00:46:00.707Z,0
2016-10-02T00:46:41.221Z,0
2016-10-02T00:47:21.714Z,0
2016-10-02T00:48:02.238Z,0
2016-10-02T00:48:42.734Z,0
2016-10-02T00:49:23.275Z,0
2016-10-02T00:50:03.787Z,0
2016-10-02T00:50:44.245Z,0
2016-10-02T00:51:24.740Z,0
2016-10-02T00:52:05.235Z,0
2016-10-02T00:52:45.736Z,0
2016-10-02T00:53:26.252Z,0
2016-10-02T00:54:06.797Z,0
2016-10-02T00:54:47.350Z,0
2016-10-02T00:55:27.847Z,0
2016-10-02T00:56:08.316Z,0
2016-10-02T00:56:48.860Z,0
2016-10-02T00:57:29.344Z,0
2016-10-02T00:58:09.867Z,0
2016-10-02T00:58:50.375Z,0
2016-10-02T00:59:30.881Z,0
2016-10-02T01:00:11.396Z,0
2016-10-02T01:00:52.896Z,0
2016-10-02T01:01:33.418Z,0
2016-10-02T01:02:13.920Z,0
2016-10-02T01:02:54.451Z,0
2016-10-02T01:03:34.961Z,0
2016-10-02T01:04:15.489Z,0
2016-10-02T01:04:56.024Z,0
2016-10-02T01:05:36.552Z,0
2016-10-02T01:06:17.086Z,0
2016-10-02T01:06:57.600Z,0
2016-10-02T01:07:38.117Z,0
2016-10-02T01:08:18.610Z,0
2016-10-02T01:08:59.122Z,0
2016-10-02T01:09:39.614Z,0
2016-10-02T01:10:20.124Z,0
2016-10-02T01:11:00.607Z,0
2016-10-02T01:11:41.098Z,0
2016-10-02T01:12:21.638Z,0
2016-10-02T01:13:02.155Z,0
2016-10-02T01:13:42.678Z,0
2016-10-02T01:14:23.221Z,0
2016-10-02T01:15:03.746Z,0
2016-10-02T01:15:44.243Z,0
2016-10-02T01:16:24.770Z,0
2016-10-02T01:17:05.243Z,0
2016-10-02T01:17:45.726Z,0
2016-10-02T01:18:26.242Z,0
2016-10-02T01:19:06.720Z,0
2016-10-02T01:19:47.233Z,0
2016-10-02T01:20:27.771Z,0
2016-10-02T01:21:08.300Z,0
2016-10-02T01:21:48.848Z,0
2016-10-02T01:22:29.374Z,0
2016-10-02T01:23:09.909Z,0
2016-10-02T01:23:50.422Z,0
2016-10-02T01:24:30.946Z,0
2016-10-02T01:25:11.441Z,0
2016-10-02T01:25:51.941Z,0
2016-10-02T01:26:32.419Z,0
2016-10-02T01:27:12.918Z,0
2016-10-02T01:27:53.445Z,0
2016-10-02T01:28:33.910Z,0
2016-10-02T01:29:14.437Z,0
2016-10-02T01:29:54.904Z,0
2016-10-02T01:30:35.409Z,0
2016-10-02T01:31:15.938Z,0
2016-10-02T01:31:56.381Z,0
2016-10-02T01:32:36.868Z,0
2016-10-02T01:33:17.394Z,0
2016-10-02T01:33:57.855Z,0
2016-10-02T01:34:38.360Z,0
2016-10-02T01:35:18.879Z,0
2016-10-02T01:35:59.401Z,0
2016-10-02T01:36:39.916Z,0
2016-10-02T01:37:20.442Z,0
2016-10-02T01:38:01.005Z,0
2016-10-02T01:38:41.517Z,0
2016-10-02T01:39:21.997Z,0
2016-10-02T01:40:02.514Z,0
2016-10-02T01:40:43.034Z,0
2016-10-02T01:41:23.548Z,0
2016-10-02T01:42:04.053Z,0
2016-10-02T01:42:44.539Z,0
2016-10-02T01:43:25.030Z,0
2016-10-02T01:44:05.529Z,0
2016-10-02T01:44:46.017Z,0
2016-10-02T01:45:26.468Z,0
2016-10-02T01:46:06.963Z,0
2016-10-02T01:46:47.477Z,0
2016-10-02T01:47:27.970Z,0
2016-10-02T01:48:08.493Z,0
2016-10-02T01:48:48.998Z,0
2016-10-02T01:49:29.528Z,0
2016-10-02T01:50:10.044Z,0
2016-10-02T01:50:50.553Z,0
2016-10-02T01:51:31.077Z,0
2016-10-02T01:52:11.600Z,0
2016-10-02T01:52:52.145Z,0
2016-10-02T01:53:32.691Z,0
2016-10-02T01:54:13.203Z,0
2016-10-02T01:54:53.731Z,0
2016-10-02T01:55:34.255Z,0
2016-10-02T01:56:14.744Z,0
2016-10-02T01:56:55.266Z,0
2016-10-02T01:57:35.783Z,0
2016-10-02T01:58:16.299Z,0
2016-10-02T01:58:56.828Z,0
2016-10-02T01:59:37.357Z,0
2016-10-02T02:00:17.839Z,0
2016-10-02T02:00:58.375Z,0
2016-10-02T02:01:38.847Z,0
2016-10-02T02:02:19.353Z,0
2016-10-02T02:02:59.896Z,0
2016-10-02T02:03:40.387Z,0
2016-10-02T02:04:20.901Z,0
2016-10-02T02:05:01.420Z,0
2016-10-02T02:05:41.938Z,0
2016-10-02T02:06:22.429Z,0
2016-10-02T02:07:02.941Z,0
2016-10-02T02:07:43.446Z,0
2016-10-02T02:08:23.954Z,0
2016-10-02T02:09:04.454Z,0
2016-10-02T02:09:44.950Z,0
2016-10-02T02:10:25.483Z,0
2016-10-02T02:11:06.021Z,0
2016-10-02T02:11:46.835Z,0
2016-10-02T02:12:27.115Z,0
2016-10-02T02:13:07.643Z,0
2016-10-02T02:13:48.144Z,0
2016-10-02T02:14:28.657Z,0
2016-10-02T02:15:09.183Z,0
2016-10-02T02:15:49.706Z,0
2016-10-02T02:16:30.369Z,0
2016-10-02T02:17:10.876Z,0
2016-10-02T02:17:51.411Z,0
2016-10-02T02:18:31.939Z,0
2016-10-02T02:19:12.434Z,0
2016-10-02T02:19:52.950Z,0
2016-10-02T02:20:33.465Z,0
2016-10-02T02:21:13.996Z,0
2016-10-02T02:21:54.497Z,0
2016-10-02T02:22:34.992Z,0
2016-10-02T02:23:15.528Z,0
2016-10-02T02:23:56.012Z,0
2016-10-02T02:24:36.505Z,0
2016-10-02T02:25:17.014Z,0
2016-10-02T02:25:57.520Z,0
2016-10-02T02:26:38.025Z,0
2016-10-02T02:27:18.526Z,0
2016-10-02T02:27:59.045Z,0
2016-10-02T02:28:39.563Z,0
2016-10-02T02:29:20.065Z,0
2016-10-02T02:30:00.658Z,0
2016-10-02T02:30:41.167Z,0
2016-10-02T02:31:21.668Z,0
2016-10-02T02:32:02.191Z,0
2016-10-02T02:32:42.715Z,0
2016-10-02T02:33:23.233Z,0
2016-10-02T02:34:03.759Z,0
2016-10-02T02:34:44.283Z,0
2016-10-02T02:35:24.823Z,0
2016-10-02T02:36:05.344Z,0
2016-10-02T02:36:45.860Z,0
2016-10-02T02:37:26.370Z,0
2016-10-02T02:38:06.899Z,0
2016-10-02T02:38:47.424Z,0
2016-10-02T02:39:27.942Z,0
2016-10-02T02:40:08.471Z,0
2016-10-02T02:40:48.990Z,0
2016-10-02T02:41:29.497Z,0
2016-10-02T02:42:10.036Z,0
2016-10-02T02:42:50.605Z,0
2016-10-02T02:43:31.163Z,0
2016-10-02T02:44:11.678Z,0
2016-10-02T02:44:52.203Z,0
2016-10-02T02:45:32.709Z,0
2016-10-02T02:46:13.250Z,0
2016-10-02T02:46:53.753Z,0
2016-10-02T02:47:34.276Z,0
2016-10-02T02:48:14.781Z,0
2016-10-02T02:48:55.327Z,0
2016-10-02T02:49:35.845Z,0
2016-10-02T02:50:16.377Z,0
2016-10-02T02:50:56.887Z,0
2016-10-02T02:51:37.383Z,0
2016-10-02T02:52:17.905Z,0
2016-10-02T02:52:58.409Z,0
2016-10-02T02:53:38.883Z,0
2016-10-02T02:54:19.424Z,0
2016-10-02T02:54:59.912Z,0
2016-10-02T02:55:40.438Z,0
2016-10-02T02:56:20.954Z,0
2016-10-02T02:57:01.461Z,0
2016-10-02T02:57:41.955Z,0
2016-10-02T02:58:22.454Z,0
2016-10-02T02:59:02.940Z,0
2016-10-02T02:59:43.467Z,0
2016-10-02T03:00:24.005Z,0
2016-10-02T03:01:04.541Z,0
2016-10-02T03:01:45.056Z,0
2016-10-02T03:02:25.557Z,0
2016-10-02T03:03:06.062Z,0
2016-10-02T03:03:46.575Z,0
2016-10-02T03:04:27.085Z,0
2016-10-02T03:05:07.608Z,0
2016-10-02T03:05:48.105Z,0
2016-10-02T03:06:28.656Z,0
2016-10-02T03:07:09.203Z,0
2016-10-02T03:07:49.708Z,0
2016-10-02T03:08:30.214Z,0
2016-10-02T03:09:10.735Z,0
2016-10-02T03:09:51.234Z,0
2016-10-02T03:10:31.755Z,0
2016-10-02T03:11:12.275Z,0
2016-10-02T03:11:52.789Z,0
2016-10-02T03:12:33.308Z,0
2016-10-02T03:13:13.822Z,0
2016-10-02T03:13:54.332Z,0
2016-10-02T03:14:34.885Z,0
2016-10-02T03:15:15.380Z,0
2016-10-02T03:15:55.922Z,0
2016-10-02T03:16:36.423Z,0
2016-10-02T03:17:16.941Z,0
2016-10-02T03:17:57.478Z,0
2016-10-02T03:18:37.952Z,0
2016-10-02T03:19:18.455Z,0
2016-10-02T03:19:58.986Z,0
2016-10-02T03:20:39.480Z,0
2016-10-02T03:21:20.006Z,0
2016-10-02T03:22:00.508Z,0
2016-10-02T03:22:40.992Z,0
2016-10-02T03:23:21.502Z,0
2016-10-02T03:24:02.047Z,0
2016-10-02T03:24:42.535Z,0
2016-10-02T03:25:23.037Z,0
2016-10-02T03:26:03.563Z,0
2016-10-02T03:26:44.059Z,0
2016-10-02T03:27:24.612Z,0
2016-10-02T03:28:05.101Z,0
2016-10-02T03:28:45.620Z,0
2016-10-02T03:29:26.147Z,0
2016-10-02T03:30:06.661Z,0
2016-10-02T03:30:47.179Z,0
2016-10-02T03:31:27.663Z,0
2016-10-02T03:32:08.190Z,0
2016-10-02T03:32:48.735Z,0
2016-10-02T03:33:29.224Z,0
2016-10-02T03:34:09.775Z,0
2016-10-02T03:34:50.274Z,0
2016-10-02T03:35:30.773Z,0
2016-10-02T03:36:11.267Z,0
2016-10-02T03:36:51.787Z,0
2016-10-02T03:37:32.308Z,0
2016-10-02T03:38:12.856Z,0
2016-10-02T03:38:53.367Z,0
2016-10-02T03:39:33.894Z,0
2016-10-02T03:40:14.420Z,0
2016-10-02T03:40:54.936Z,0
2016-10-02T03:41:35.441Z,0
2016-10-02T03:42:15.968Z,0
2016-10-02T03:42:56.501Z,0
2016-10-02T03:43:37.008Z,0
2016-10-02T03:44:17.536Z,0
2016-10-02T03:44:58.081Z,0
2016-10-02T03:45:38.631Z,0
2016-10-02T03:46:19.110Z,0
2016-10-02T03:46:59.628Z,0
2016-10-02T03:47:40.155Z,0
2016-10-02T03:48:20.678Z,0
2016-10-02T03:49:01.174Z,0
2016-10-02T03:49:41.670Z,0
2016-10-02T03:50:22.163Z,0
2016-10-02T03:51:02.642Z,0
2016-10-02T03:51:43.173Z,0
2016-10-02T03:52:23.659Z,0
2016-10-02T03:53:04.215Z,0
2016-10-02T03:53:44.717Z,0
2016-10-02T03:54:25.209Z,0
2016-10-02T03:55:05.733Z,0
2016-10-02T03:55:46.217Z,0
2016-10-02T03:56:26.709Z,0
2016-10-02T03:57:07.220Z,0
2016-10-02T03:57:47.724Z,0
2016-10-02T03:58:28.238Z,0
2016-10-02T03:59:08.743Z,0
2016-10-02T03:59:49.261Z,0
2016-10-02T04:00:29.807Z,0
2016-10-02T04:01:10.325Z,0
2016-10-02T04:01:50.841Z,0
2016-10-02T04:02:31.359Z,0
2016-10-02T04:03:11.884Z,0
2016-10-02T04:03:52.376Z,0
2016-10-02T04:04:32.918Z,0
2016-10-02T04:05:13.453Z,0
2016-10-02T04:05:53.981Z,0
2016-10-02T04:06:34.555Z,0
2016-10-02T04:07:15.074Z,0
2016-10-02T04:07:55.588Z,0
2016-10-02T04:08:36.122Z,0
2016-10-02T04:09:16.653Z,0
2016-10-02T04:09:57.170Z,0
2016-10-02T04:10:37.678Z,0
2016-10-02T04:11:18.189Z,0
2016-10-02T04:11:58.695Z,0
2016-10-02T04:12:39.208Z,0
2016-10-02T04:13:19.746Z,0
2016-10-02T04:14:00.230Z,0
2016-10-02T04:14:40.736Z,0
2016-10-02T04:15:21.233Z,0
2016-10-02T04:16:01.834Z,0
2016-10-02T04:16:42.349Z,0
2016-10-02T04:17:22.843Z,0
2016-10-02T04:18:03.345Z,0
2016-10-02T04:18:43.901Z,0
2016-10-02T04:19:24.384Z,0
2016-10-02T04:20:04.885Z,0
2016-10-02T04:20:45.392Z,0
2016-10-02T04:21:25.883Z,0
2016-10-02T04:22:06.414Z,0
2016-10-02T04:22:46.939Z,0
2016-10-02T04:23:27.458Z,0
2016-10-02T04:24:07.953Z,0
2016-10-02T04:24:48.460Z,0
2016-10-02T04:25:28.979Z,0
2016-10-02T04:26:09.509Z,0
2016-10-02T04:26:50.007Z,0
2016-10-02T04:27:30.530Z,0
2016-10-02T04:28:11.053Z,0
2016-10-02T04:28:51.564Z,0
2016-10-02T04:29:32.106Z,0
2016-10-02T04:30:12.634Z,0
2016-10-02T04:30:53.125Z,0
2016-10-02T04:31:33.671Z,0
2016-10-02T04:32:14.194Z,0
2016-10-02T04:32:54.673Z,0
2016-10-02T04:33:35.168Z,0
2016-10-02T04:34:15.727Z,0
2016-10-02T04:34:56.245Z,0
2016-10-02T04:35:36.763Z,0
2016-10-02T04:36:17.289Z,0
2016-10-02T04:36:57.819Z,0
2016-10-02T04:37:38.300Z,0
2016-10-02T04:38:18.814Z,0
2016-10-02T04:38:59.347Z,0
2016-10-02T04:39:39.840Z,0
2016-10-02T04:40:21.023Z,0
2016-10-02T04:41:01.539Z,0
2016-10-02T04:41:42.055Z,0
2016-10-02T04:42:22.582Z,0
2016-10-02T04:43:03.085Z,0
2016-10-02T04:43:43.562Z,0
2016-10-02T04:44:24.054Z,0
2016-10-02T04:45:04.612Z,0
2016-10-02T04:45:45.134Z,0
2016-10-02T04:46:25.680Z,0
2016-10-02T04:47:06.339Z,0
2016-10-02T04:47:46.851Z,0
2016-10-02T04:48:27.383Z,0
2016-10-02T04:49:07.897Z,0
2016-10-02T04:49:48.415Z,0
2016-10-02T04:50:28.945Z,0
2016-10-02T04:51:09.457Z,0
2016-10-02T04:51:49.969Z,0
2016-10-02T04:52:30.463Z,0
2016-10-02T04:53:11.070Z,0
2016-10-02T04:53:51.581Z,0
2016-10-02T04:54:32.207Z,0
2016-10-02T04:55:12.709Z,0
2016-10-02T04:55:53.220Z,0
2016-10-02T04:56:33.757Z,0
2016-10-02T04:57:14.256Z,0
2016-10-02T04:57:54.781Z,0
2016-10-02T04:58:35.245Z,0
2016-10-02T04:59:15.802Z,0
2016-10-02T04:59:56.319Z,0
2016-10-02T05:00:36.819Z,0
2016-10-02T05:01:17.322Z,0
2016-10-02T05:01:57.814Z,0
2016-10-02T05:02:38.342Z,0
2016-10-02T05:03:18.846Z,0
2016-10-02T05:03:59.382Z,0
2016-10-02T05:04:39.880Z,0
2016-10-02T05:05:20.414Z,0
2016-10-02T05:06:00.929Z,0
2016-10-02T05:06:41.472Z,0
2016-10-02T05:07:21.982Z,0
2016-10-02T05:08:02.492Z,0
2016-10-02T05:08:43.008Z,0
2016-10-02T05:09:23.560Z,0
2016-10-02T05:10:04.080Z,0
2016-10-02T05:10:44.597Z,0
2016-10-02T05:11:25.128Z,0
2016-10-02T05:12:05.653Z,0
2016-10-02T05:12:46.182Z,0
2016-10-02T05:13:26.683Z,0
2016-10-02T05:14:07.212Z,0
2016-10-02T05:14:47.732Z,0
2016-10-02T05:15:28.248Z,0
2016-10-02T05:16:08.777Z,0
2016-10-02T05:16:49.298Z,0
2016-10-02T05:17:29.778Z,0
2016-10-02T05:18:10.291Z,0
2016-10-02T05:18:50.784Z,0
2016-10-02T05:19:31.291Z,0
2016-10-02T05:20:11.769Z,0
2016-10-02T05:20:52.285Z,0
2016-10-02T05:21:32.758Z,0
2016-10-02T05:22:13.270Z,0
2016-10-02T05:22:55.528Z,0
2016-10-02T05:23:36.021Z,0
2016-10-02T05:24:16.538Z,0
2016-10-02T05:24:57.065Z,0
2016-10-02T05:25:37.598Z,0
2016-10-02T05:26:18.082Z,0
2016-10-02T05:26:58.595Z,0
2016-10-02T05:27:39.101Z,5
2016-10-02T05:28:19.590Z,5
2016-10-02T05:29:00.067Z,5
2016-10-02T05:29:40.619Z,5
2016-10-02T05:30:21.123Z,5
2016-10-02T05:31:01.583Z,5
2016-10-02T05:31:42.107Z,5
2016-10-02T05:32:22.603Z,5
2016-10-02T05:33:03.164Z,5
2016-10-02T05:33:43.672Z,10
2016-10-02T05:34:24.201Z,10
2016-10-02T05:35:04.717Z,10
2016-10-02T05:35:45.216Z,10
2016-10-02T05:36:25.722Z,10
2016-10-02T05:37:06.250Z,10
2016-10-02T05:37:46.765Z,10
2016-10-02T05:38:27.280Z,10
2016-10-02T05:39:07.791Z,15
2016-10-02T05:39:48.321Z,15
2016-10-02T05:40:28.828Z,15
2016-10-02T05:41:09.309Z,15
2016-10-02T05:41:49.840Z,15
2016-10-02T05:42:30.298Z,15
2016-10-02T05:43:10.818Z,20
2016-10-02T05:43:51.348Z,20
2016-10-02T05:44:31.825Z,20
2016-10-02T05:45:12.332Z,20
2016-10-02T05:45:52.824Z,20
2016-10-02T05:46:33.367Z,20
2016-10-02T05:47:13.875Z,25
2016-10-02T05:47:54.409Z,25
2016-10-02T05:48:34.914Z,25
2016-10-02T05:49:15.451Z,25
2016-10-02T05:49:55.943Z,25
2016-10-02T05:50:36.468Z,30
2016-10-02T05:51:16.980Z,30
2016-10-02T05:51:57.514Z,30
2016-10-02T05:52:38.025Z,30
2016-10-02T05:53:18.495Z,30
2016-10-02T05:53:58.978Z,35
2016-10-02T05:54:39.588Z,35
2016-10-02T05:55:20.050Z,35
2016-10-02T05:56:00.539Z,35
2016-10-02T05:56:41.055Z,35
2016-10-02T05:57:21.571Z,40
2016-10-02T05:58:02.075Z,40
2016-10-02T05:58:42.601Z,40
2016-10-02T05:59:23.108Z,40
2016-10-02T06:00:03.645Z,40
2016-10-02T06:00:44.160Z,45
2016-10-02T06:01:24.672Z,45
2016-10-02T06:02:05.320Z,45
2016-10-02T06:02:45.847Z,45
2016-10-02T06:03:26.364Z,45
2016-10-02T06:04:06.894Z,50
2016-10-02T06:04:47.399Z,50
2016-10-02T06:05:27.939Z,50
2016-10-02T06:06:08.418Z,50
2016-10-02T06:06:48.902Z,50
2016-10-02T06:07:29.397Z,55
2016-10-02T06:08:09.921Z,55
2016-10-02T06:08:50.382Z,55
2016-10-02T06:09:30.890Z,55
2016-10-02T06:10:11.387Z,55
2016-10-02T06:10:51.897Z,60
2016-10-02T06:11:32.412Z,60
2016-10-02T06:12:12.935Z,60
2016-10-02T06:12:53.445Z,60
2016-10-02T06:13:33.984Z,60
2016-10-02T06:14:14.488Z,65
2016-10-02T06:14:54.957Z,65
2016-10-02T06:15:35.453Z,65
2016-10-02T06:16:15.953Z,65
2016-10-02T06:16:56.481Z,65
2016-10-02T06:17:36.964Z,65
2016-10-02T06:18:19.145Z,70
2016-10-02T06:18:59.663Z,70
2016-10-02T06:19:40.150Z,70
2016-10-02T06:20:20.641Z,70
2016-10-02T06:21:01.123Z,70
2016-10-02T06:21:41.627Z,75
2016-10-02T06:22:22.127Z,75
2016-10-02T06:23:02.635Z,75
2016-10-02T06:23:43.148Z,75
2016-10-02T06:24:23.672Z,75
2016-10-02T06:25:04.180Z,80
2016-10-02T06:25:44.702Z,80
2016-10-02T06:26:25.218Z,80
2016-10-02T06:27:05.768Z,80
2016-10-02T06:27:46.258Z,80
2016-10-02T06:28:26.784Z,80
2016-10-02T06:29:07.261Z,85
2016-10-02T06:29:47.808Z,85
2016-10-02T06:30:28.378Z,85
2016-10-02T06:31:08.817Z,85
2016-10-02T06:31:49.329Z,85
2016-10-02T06:32:29.823Z,90
2016-10-02T06:33:10.322Z,90
2016-10-02T06:33:50.808Z,90
2016-10-02T06:34:31.326Z,90
2016-10-02T06:35:11.819Z,90
2016-10-02T06:35:52.318Z,90
2016-10-02T06:36:32.847Z,95
2016-10-02T06:37:13.356Z,95
2016-10-02T06:37:53.898Z,95
2016-10-02T06:38:34.356Z,95
2016-10-02T06:39:14.878Z,95
2016-10-02T06:39:55.367Z,95
2016-10-02T06:40:35.925Z,100
2016-10-02T06:41:16.441Z,100
2016-10-02T06:41:56.977Z,100
2016-10-02T06:42:37.503Z,100
2016-10-02T06:43:18.019Z,100
2016-10-02T06:43:58.541Z,100
2016-10-02T06:44:39.060Z,105
2016-10-02T06:45:19.584Z,105
2016-10-02T06:46:00.106Z,105
2016-10-02T06:46:40.623Z,105
2016-10-02T06:47:21.136Z,105
2016-10-02T06:48:01.653Z,105
2016-10-02T06:48:42.181Z,105
2016-10-02T06:49:22.712Z,110
2016-10-02T06:50:03.226Z,110
2016-10-02T06:50:43.731Z,110
2016-10-02T06:51:24.249Z,110
2016-10-02T06:52:04.780Z,110
2016-10-02T06:52:45.283Z,110
2016-10-02T06:53:25.789Z,115
2016-10-02T06:54:06.294Z,115
2016-10-02T06:54:46.816Z,115
2016-10-02T06:55:27.320Z,115
2016-10-02T06:56:07.821Z,115
2016-10-02T06:56:48.342Z,115
2016-10-02T06:57:28.909Z,120
2016-10-02T06:58:09.500Z,120
2016-10-02T06:58:50.005Z,120
2016-10-02T06:59:30.514Z,120
2016-10-02T07:00:11.083Z,120
2016-10-02T07:00:51.643Z,120
2016-10-02T07:01:32.132Z,120
2016-10-02T07:02:12.679Z,125
2016-10-02T07:02:53.175Z,125
2016-10-02T07:03:33.735Z,125
2016-10-02T07:04:14.368Z,125
2016-10-02T07:04:54.827Z,125
2016-10-02T07:05:35.437Z,125
2016-10-02T07:06:16.123Z,125
2016-10-02T07:06:56.678Z,130
2016-10-02T07:07:37.241Z,130
2016-10-02T07:08:17.784Z,130
2016-10-02T07:08:58.308Z,130
2016-10-02T07:09:38.769Z,130
2016-10-02T07:10:19.293Z,130
2016-10-02T07:10:59.804Z,135
2016-10-02T07:11:40.304Z,135
2016-10-02T07:12:20.905Z,135
2016-10-02T07:13:01.443Z,135
2016-10-02T07:13:42.021Z,135
2016-10-02T07:14:22.527Z,135
2016-10-02T07:15:03.072Z,135
2016-10-02T07:15:43.603Z,140
2016-10-02T07:16:24.148Z,140
2016-10-02T07:17:04.676Z,140
2016-10-02T07:17:45.286Z,140
2016-10-02T07:18:25.815Z,145
2016-10-02T07:19:06.344Z,145
2016-10-02T07:19:46.864Z,145
2016-10-02T07:20:27.380Z,145
2016-10-02T07:21:07.945Z,145
2016-10-02T07:21:48.480Z,145
2016-10-02T07:22:28.987Z,150
2016-10-02T07:23:09.458Z,150
2016-10-02T07:23:50.207Z,150
2016-10-02T07:24:30.584Z,150
2016-10-02T07:25:11.071Z,155
2016-10-02T07:25:51.802Z,155
2016-10-02T07:26:32.290Z,155
2016-10-02T07:27:13.013Z,155
2016-10-02T07:27:53.522Z,155
2016-10-02T07:28:34.168Z,155
2016-10-02T07:29:14.607Z,160
2016-10-02T07:29:55.172Z,160
2016-10-02T07:30:35.737Z,160
2016-10-02T07:31:16.215Z,160
2016-10-02T07:31:56.754Z,165
2016-10-02T07:32:37.309Z,165
2016-10-02T07:33:17.821Z,165
2016-10-02T07:33:58.372Z,170
2016-10-02T07:34:38.895Z,170
2016-10-02T07:35:19.456Z,170
2016-10-02T07:35:59.999Z,175
2016-10-02T07:36:40.482Z,190
2016-10-02T07:37:21.009Z,205
2016-10-02T07:38:01.501Z,230
2016-10-02T07:38:42.037Z,255
2016-10-02T07:39:22.541Z,290
2016-10-02T07:40:03.049Z,325
2016-10-02T07:40:43.578Z,370
2016-10-02T07:41:24.080Z,390
2016-10-02T07:42:04.603Z,410
2016-10-02T07:42:45.074Z,415
2016-10-02T07:43:25.574Z,420
2016-10-02T07:44:06.068Z,415
2016-10-02T07:44:46.586Z,405
2016-10-02T07:45:27.082Z,400
2016-10-02T07:46:07.622Z,380
2016-10-02T07:46:48.248Z,365
2016-10-02T07:47:28.782Z,355
2016-10-02T07:48:09.251Z,355
2016-10-02T07:48:49.775Z,365
2016-10-02T07:49:30.288Z,385
2016-10-02T07:50:10.894Z,395
2016-10-02T07:50:51.410Z,400
2016-10-02T07:51:31.933Z,425
2016-10-02T07:52:12.467Z,425
2016-10-02T07:52:53.005Z,430
2016-10-02T07:53:33.658Z,455
2016-10-02T07:54:14.101Z,465
2016-10-02T07:54:54.657Z,485
2016-10-02T07:55:35.277Z,500
2016-10-02T07:56:16.518Z,500
2016-10-02T07:56:57.072Z,470
2016-10-02T07:57:37.539Z,445
2016-10-02T07:58:18.072Z,435
2016-10-02T07:58:58.585Z,430
2016-10-02T07:59:39.231Z,410
2016-10-02T08:00:19.756Z,380
2016-10-02T08:01:00.277Z,355
2016-10-02T08:01:40.792Z,325
2016-10-02T08:02:21.303Z,295
2016-10-02T08:03:01.873Z,300
2016-10-02T08:03:42.464Z,275
2016-10-02T08:04:22.962Z,260
2016-10-02T08:05:03.505Z,245
2016-10-02T08:05:44.012Z,255
2016-10-02T08:06:24.553Z,260
2016-10-02T08:07:05.122Z,270
2016-10-02T08:07:45.711Z,285
2016-10-02T08:08:26.260Z,300
2016-10-02T08:09:06.816Z,320
2016-10-02T08:09:47.412Z,330
2016-10-02T08:10:27.946Z,315
2016-10-02T08:11:08.463Z,325
2016-10-02T08:11:48.966Z,320
2016-10-02T08:12:29.529Z,320
2016-10-02T08:13:10.117Z,305
2016-10-02T08:13:50.658Z,305
2016-10-02T08:14:31.682Z,295
2016-10-02T08:15:12.625Z,300
2016-10-02T08:15:53.146Z,280
2016-10-02T08:16:33.681Z,250
2016-10-02T08:17:14.235Z,250
2016-10-02T08:17:54.791Z,260
2016-10-02T08:18:35.391Z,265
2016-10-02T08:19:15.844Z,270
2016-10-02T08:19:56.373Z,275
2016-10-02T08:20:36.884Z,285
2016-10-02T08:21:17.411Z,305
2016-10-02T08:21:57.971Z,325
2016-10-02T08:22:38.481Z,290
2016-10-02T08:23:19.021Z,300
2016-10-02T08:23:59.547Z,300
2016-10-02T08:24:40.079Z,325
2016-10-02T08:25:20.618Z,350
2016-10-02T08:26:01.110Z,350
2016-10-02T08:26:41.652Z,350
2016-10-02T08:27:22.193Z,325
2016-10-02T08:28:02.744Z,295
2016-10-02T08:28:43.272Z,295
2016-10-02T08:29:23.771Z,295
2016-10-02T08:30:04.580Z,290
2016-10-02T08:30:44.823Z,250
2016-10-02T08:31:25.340Z,205
2016-10-02T08:32:05.854Z,195
2016-10-02T08:32:46.412Z,175
2016-10-02T08:33:26.942Z,170
2016-10-02T08:34:07.477Z,160
2016-10-02T08:34:48.718Z,160
2016-10-02T08:35:29.353Z,175
2016-10-02T08:36:09.974Z,205
2016-10-02T08:36:50.588Z,235
2016-10-02T08:37:31.285Z,240
2016-10-02T08:38:11.744Z,260
2016-10-02T08:38:53.758Z,290
2016-10-02T08:39:34.285Z,335
2016-10-02T08:40:14.807Z,360
2016-10-02T08:40:55.364Z,430
2016-10-02T08:41:35.918Z,475
2016-10-02T08:42:16.407Z,475
2016-10-02T08:42:56.908Z,540
2016-10-02T08:43:37.435Z,640
2016-10-02T08:44:17.961Z,635
2016-10-02T08:44:58.513Z,525
2016-10-02T08:45:39.016Z,475
2016-10-02T08:46:19.512Z,320
2016-10-02T08:47:00.081Z,215
2016-10-02T08:47:40.745Z,190
2016-10-02T08:48:22.287Z,195
2016-10-02T08:49:02.821Z,215
2016-10-02T08:49:43.404Z,250
2016-10-02T08:50:24.061Z,240
2016-10-02T08:51:04.503Z,225
2016-10-02T08:51:45.011Z,235
2016-10-02T08:52:25.546Z,205
2016-10-02T08:53:06.075Z,190
2016-10-02T08:53:46.611Z,195
2016-10-02T08:54:27.175Z,225
2016-10-02T08:55:07.681Z,240
2016-10-02T08:55:48.153Z,240
2016-10-02T08:56:28.666Z,280
2016-10-02T08:57:09.195Z,330
2016-10-02T08:57:49.689Z,400
2016-10-02T08:58:30.205Z,500
2016-10-02T08:59:10.703Z,520
2016-10-02T08:59:51.205Z,490
2016-10-02T09:00:31.709Z,490
2016-10-02T09:01:12.220Z,535
2016-10-02T09:01:52.775Z,525
2016-10-02T09:02:33.227Z,510
2016-10-02T09:03:13.728Z,475
2016-10-02T09:03:54.224Z,545
2016-10-02T09:04:34.681Z,565
2016-10-02T09:05:15.200Z,560
2016-10-02T09:05:55.706Z,550
2016-10-02T09:06:36.194Z,460
2016-10-02T09:07:16.706Z,470
2016-10-02T09:07:57.223Z,515
2016-10-02T09:08:37.765Z,535
2016-10-02T09:09:18.287Z,495
2016-10-02T09:09:58.825Z,455
2016-10-02T09:10:39.352Z,430
2016-10-02T09:11:19.971Z,430
2016-10-02T09:12:00.440Z,435
2016-10-02T09:12:40.960Z,415
2016-10-02T09:13:21.458Z,375
2016-10-02T09:14:01.979Z,355
2016-10-02T09:14:42.487Z,395
2016-10-02T09:15:22.972Z,410
2016-10-02T09:16:03.493Z,400
2016-10-02T09:16:44.028Z,385
2016-10-02T09:17:24.532Z,405
2016-10-02T09:18:05.022Z,345
2016-10-02T09:18:45.531Z,320
2016-10-02T09:19:26.049Z,275
2016-10-02T09:20:06.548Z,250
2016-10-02T09:20:47.062Z,270
2016-10-02T09:21:27.540Z,285
2016-10-02T09:22:08.108Z,290
2016-10-02T09:22:48.729Z,255
2016-10-02T09:23:29.242Z,215
2016-10-02T09:24:09.768Z,180
2016-10-02T09:24:50.355Z,155
2016-10-02T09:25:30.892Z,170
2016-10-02T09:26:11.374Z,250
2016-10-02T09:26:52.091Z,360
2016-10-02T09:27:32.509Z,440
2016-10-02T09:28:13.042Z,445
2016-10-02T09:28:53.643Z,375
2016-10-02T09:29:34.166Z,330
2016-10-02T09:30:14.920Z,310
2016-10-02T09:30:55.984Z,275
2016-10-02T09:31:36.423Z,240
2016-10-02T09:32:16.961Z,215
2016-10-02T09:32:57.493Z,175
2016-10-02T09:33:38.094Z,150
2016-10-02T09:34:18.768Z,150
2016-10-02T09:34:59.242Z,145
2016-10-02T09:35:39.985Z,140
2016-10-02T09:36:21.267Z,140
2016-10-02T09:37:01.787Z,140
2016-10-02T09:37:42.373Z,120
2016-10-02T09:38:22.865Z,115
2016-10-02T09:39:04.056Z,120
2016-10-02T09:39:44.745Z,130
2016-10-02T09:40:25.495Z,130
2016-10-02T09:41:06.884Z,115
2016-10-02T09:41:47.687Z,100
2016-10-02T09:42:29.437Z,90
2016-10-02T09:43:10.194Z,85